createdAt,value
2022-10-13T00:04:37.196Z,10.8
2022-10-13T00:09:37.197Z,10.7
2022-10-13T00:14:37.189Z,10.9
2022-10-13T00:19:37.198Z,10.9
2022-10-13T00:24:37.222Z,11.0
2022-10-13T00:29:37.211Z,11.0
2022-10-13T00:34:37.193Z,10.9
2022-10-13T00:39:37.190Z,11.0
2022-10-13T00:44:37.199Z,11.0
2022-10-13T00:49:37.196Z,10.9
2022-10-13T00:54:37.285Z,10.9
2022-10-13T00:59:37.191Z,10.7
2022-10-13T01:04:37.279Z,10.7
2022-10-13T01:09:37.222Z,10.9
2022-10-13T01:14:37.198Z,10.7
2022-10-13T01:19:37.198Z,10.8
2022-10-13T01:24:37.201Z,10.8
2022-10-13T01:29:37.214Z,10.7
2022-10-13T01:34:37.181Z,10.7
2022-10-13T01:39:37.195Z,10.7
2022-10-13T01:44:37.212Z,10.6
2022-10-13T01:49:37.198Z,10.5
2022-10-13T01:54:37.210Z,10.4
2022-10-13T01:59:37.203Z,10.4
2022-10-13T02:04:37.204Z,10.4
2022-10-13T02:09:37.191Z,10.3
2022-10-13T02:14:37.208Z,10.2
2022-10-13T02:19:37.200Z,10.2
2022-10-13T02:24:37.202Z,10.2
2022-10-13T02:29:37.208Z,10.0
2022-10-13T02:34:37.220Z,10.0
2022-10-13T02:39:37.198Z,10.0
2022-10-13T02:44:37.210Z,10.1
2022-10-13T02:49:37.204Z,9.9
2022-10-13T02:54:37.214Z,9.9
2022-10-13T02:59:37.208Z,9.8
2022-10-13T03:04:37.216Z,9.7
2022-10-13T03:09:37.203Z,9.7
2022-10-13T03:14:37.217Z,9.7
2022-10-13T03:19:37.196Z,9.8
2022-10-13T03:24:37.214Z,9.8
2022-10-13T03:29:37.213Z,9.7
2022-10-13T03:34:37.214Z,9.7
2022-10-13T03:39:37.221Z,9.6
2022-10-13T03:44:37.225Z,9.7
2022-10-13T03:49:37.246Z,9.5
2022-10-13T03:54:37.226Z,9.4
2022-10-13T03:59:37.278Z,9.5
2022-10-13T04:04:37.221Z,9.5
2022-10-13T04:09:37.205Z,9.5
2022-10-13T04:14:37.227Z,9.4
2022-10-13T04:19:37.214Z,9.5
2022-10-13T04:24:37.231Z,9.4
2022-10-13T04:29:37.223Z,9.5
2022-10-13T04:34:37.233Z,9.5
2022-10-13T04:39:37.234Z,9.3
2022-10-13T04:44:37.243Z,9.4
2022-10-13T04:49:37.212Z,9.3
2022-10-13T04:54:37.225Z,9.3
2022-10-13T04:59:37.238Z,9.2
2022-10-13T05:04:37.230Z,9.2
2022-10-13T05:09:37.236Z,9.2
2022-10-13T05:14:37.222Z,9.1
2022-10-13T05:19:37.259Z,9.0
2022-10-13T05:24:37.238Z,9.0
2022-10-13T05:29:37.241Z,9.0
2022-10-13T05:34:37.239Z,9.0
2022-10-13T05:39:37.236Z,8.9
2022-10-13T05:44:37.253Z,8.9
2022-10-13T05:49:37.241Z,9.0
2022-10-13T05:54:37.239Z,8.9
2022-10-13T05:59:37.239Z,8.9
2022-10-13T06:04:37.251Z,8.9
2022-10-13T06:09:37.256Z,8.8
2022-10-13T06:14:37.254Z,8.9
2022-10-13T06:19:37.231Z,8.8
2022-10-13T06:24:37.255Z,8.8
2022-10-13T06:29:37.254Z,8.7
2022-10-13T06:34:37.278Z,8.7
2022-10-13T06:39:37.252Z,8.7
2022-10-13T06:44:37.254Z,8.7
2022-10-13T06:49:37.243Z,8.7
2022-10-13T06:54:37.258Z,8.6
2022-10-13T06:59:37.240Z,8.6
2022-10-13T07:04:37.250Z,8.5
2022-10-13T07:09:37.261Z,8.6
2022-10-13T07:14:39.212Z,8.5
2022-10-13T07:19:37.254Z,8.5
2022-10-13T07:24:37.268Z,8.6
2022-10-13T07:29:37.261Z,8.5
2022-10-13T07:34:37.245Z,8.5
2022-10-13T07:39:37.286Z,8.9
2022-10-13T07:44:37.251Z,9.5
2022-10-13T07:49:37.267Z,11.0
2022-10-13T07:54:37.347Z,12.3
2022-10-13T07:59:37.254Z,12.5
2022-10-13T08:04:37.259Z,13.3
2022-10-13T08:09:37.273Z,13.5
2022-10-13T08:14:37.378Z,13.4
2022-10-13T08:19:37.252Z,14.1
2022-10-13T08:24:37.289Z,14.5
2022-10-13T08:29:37.328Z,14.1
2022-10-13T08:34:37.280Z,13.7
2022-10-13T08:39:37.282Z,13.3
2022-10-13T08:45:28.346Z,13.0
2022-10-13T08:49:37.253Z,13.5
2022-10-13T08:54:37.275Z,14.8
2022-10-13T08:59:37.259Z,15.0
2022-10-13T09:04:37.264Z,15.2
2022-10-13T09:09:37.314Z,15.5
2022-10-13T09:14:37.255Z,15.5
2022-10-13T09:19:37.272Z,15.1
2022-10-13T09:24:37.267Z,15.4
2022-10-13T09:29:37.267Z,15.5
2022-10-13T09:34:37.320Z,15.4
2022-10-13T09:39:37.277Z,15.0
2022-10-13T09:44:37.270Z,13.9
2022-10-13T09:49:37.296Z,14.6
2022-10-13T09:54:37.257Z,13.2
2022-10-13T09:59:37.270Z,14.7
2022-10-13T10:04:37.288Z,15.5
2022-10-13T10:09:37.261Z,14.2
2022-10-13T10:14:37.302Z,15.4
2022-10-13T10:19:37.278Z,14.8
2022-10-13T10:24:37.279Z,14.5
2022-10-13T10:29:37.288Z,13.3
2022-10-13T10:34:37.277Z,13.8
2022-10-13T10:39:37.261Z,14.7
2022-10-13T10:44:37.335Z,14.2
2022-10-13T10:49:37.322Z,14.2
2022-10-13T10:54:37.272Z,14.1
2022-10-13T10:59:37.284Z,13.9
2022-10-13T11:04:37.288Z,13.8
2022-10-13T11:09:37.272Z,14.1
2022-10-13T11:14:37.273Z,13.5
2022-10-13T11:19:37.284Z,13.5
2022-10-13T11:24:37.286Z,13.8
2022-10-13T11:29:37.260Z,12.9
2022-10-13T11:34:37.303Z,13.4
2022-10-13T11:39:37.285Z,13.5
2022-10-13T11:44:37.288Z,13.2
2022-10-13T11:49:37.286Z,13.5
2022-10-13T11:54:37.295Z,13.2
2022-10-13T11:59:37.278Z,13.2
2022-10-13T12:04:37.284Z,13.5
2022-10-13T12:09:37.284Z,13.5
2022-10-13T12:19:37.286Z,13.7
2022-10-13T12:24:37.290Z,13.5
2022-10-13T12:29:37.563Z,13.6
2022-10-13T12:34:37.290Z,13.5
2022-10-13T12:39:37.291Z,13.7
2022-10-13T12:44:37.307Z,13.5
2022-10-13T12:49:37.300Z,13.3
2022-10-13T12:54:37.292Z,13.2
2022-10-13T12:59:37.345Z,13.8
2022-10-13T13:04:37.287Z,13.7
2022-10-13T13:09:37.307Z,13.8
2022-10-13T13:14:37.307Z,13.7
2022-10-13T13:19:37.294Z,13.7
2022-10-13T13:24:40.074Z,13.6
2022-10-13T13:29:37.292Z,13.6
2022-10-13T13:34:37.302Z,13.5
2022-10-13T13:39:37.303Z,13.2
2022-10-13T13:44:37.303Z,13.3
2022-10-13T13:49:37.313Z,13.5
2022-10-13T13:55:42.965Z,13.4
2022-10-13T13:59:37.313Z,13.0
2022-10-13T14:04:37.347Z,13.2
2022-10-13T14:09:37.293Z,13.2
2022-10-13T14:14:37.311Z,13.4
2022-10-13T14:19:37.299Z,13.2
2022-10-13T14:24:37.314Z,13.3
2022-10-13T14:29:37.307Z,12.9
2022-10-13T14:34:37.307Z,13.0
2022-10-13T14:39:37.310Z,13.0
2022-10-13T14:44:37.311Z,13.0
2022-10-13T14:49:37.350Z,13.2
2022-10-13T14:54:40.083Z,13.0
2022-10-13T14:59:37.323Z,12.9
2022-10-13T15:04:37.368Z,12.9
2022-10-13T15:09:53.221Z,12.8
2022-10-13T15:14:37.317Z,12.7
2022-10-13T15:19:37.320Z,12.6
2022-10-13T15:24:37.333Z,12.7
2022-10-13T15:29:37.306Z,12.7
2022-10-13T15:34:37.318Z,12.6
2022-10-13T15:39:37.301Z,12.3
2022-10-13T15:44:57.737Z,12.2
2022-10-13T15:49:37.337Z,12.3
2022-10-13T15:54:37.323Z,12.2
2022-10-13T15:59:37.322Z,12.1
2022-10-13T16:04:37.718Z,12.0
2022-10-13T16:09:37.314Z,12.0
2022-10-13T16:14:37.293Z,12.0
2022-10-13T16:19:37.328Z,11.9
2022-10-13T16:24:37.349Z,11.9
2022-10-13T16:29:37.326Z,11.8
2022-10-13T16:34:37.326Z,11.7
2022-10-13T16:39:42.036Z,11.6
2022-10-13T16:44:37.327Z,11.5
2022-10-13T16:49:37.330Z,11.4
2022-10-13T16:54:37.335Z,11.2
2022-10-13T16:59:37.283Z,11.1
2022-10-13T17:04:37.341Z,11.0
2022-10-13T17:09:37.358Z,10.9
2022-10-13T17:14:37.337Z,10.9
2022-10-13T17:19:37.334Z,10.8
2022-10-13T17:24:37.375Z,10.7
2022-10-13T17:29:37.337Z,10.7
2022-10-13T17:34:37.325Z,10.5
2022-10-13T17:39:37.353Z,10.5
2022-10-13T17:44:37.334Z,10.4
2022-10-13T17:49:37.349Z,10.4
2022-10-13T17:54:37.359Z,10.4
2022-10-13T17:59:37.345Z,10.4
2022-10-13T18:04:37.361Z,10.4
2022-10-13T18:09:37.361Z,10.3
2022-10-13T18:14:37.348Z,10.2
2022-10-13T18:19:40.298Z,10.2
2022-10-13T18:24:37.337Z,10.1
2022-10-13T18:29:37.351Z,10.0
2022-10-13T18:34:37.379Z,10.0
2022-10-13T18:39:37.346Z,10.0
2022-10-13T18:44:37.347Z,10.0
2022-10-13T18:49:37.360Z,9.9
2022-10-13T18:54:37.396Z,10.0
2022-10-13T18:59:37.358Z,10.0
2022-10-13T19:04:37.349Z,9.9
2022-10-13T19:09:37.415Z,9.9
2022-10-13T19:14:37.349Z,9.9
2022-10-13T19:19:37.365Z,9.8
2022-10-13T19:24:37.357Z,9.7
2022-10-13T19:29:37.369Z,9.6
2022-10-13T19:34:37.359Z,9.5
2022-10-13T19:39:37.373Z,9.5
2022-10-13T19:44:37.367Z,9.7
2022-10-13T19:49:37.387Z,9.7
2022-10-13T19:54:37.364Z,9.6
2022-10-13T19:59:37.376Z,9.5
2022-10-13T20:04:37.387Z,9.5
2022-10-13T20:09:37.393Z,9.2
2022-10-13T20:14:37.365Z,8.7
2022-10-13T20:19:37.377Z,9.1
2022-10-13T20:24:37.398Z,9.4
2022-10-13T20:29:37.376Z,9.3
2022-10-13T20:34:37.381Z,9.3
2022-10-13T20:39:37.399Z,9.3
2022-10-13T20:44:37.378Z,9.3
2022-10-13T20:49:37.411Z,9.4
2022-10-13T20:54:37.375Z,9.4
2022-10-13T20:59:37.421Z,9.5
2022-10-13T21:04:37.403Z,9.4
2022-10-13T21:09:37.385Z,9.2
2022-10-13T21:14:37.401Z,9.3
2022-10-13T21:19:37.399Z,9.3
2022-10-13T21:24:37.404Z,9.2
2022-10-13T21:29:37.387Z,9.2
2022-10-13T21:34:37.405Z,9.1
2022-10-13T21:39:37.420Z,9.0
2022-10-13T21:44:37.399Z,9.0
2022-10-13T21:49:37.416Z,9.0
2022-10-13T21:54:37.415Z,9.2
2022-10-13T21:59:37.393Z,9.0
2022-10-13T22:04:37.398Z,9.0
2022-10-13T22:09:37.415Z,9.0
2022-10-13T22:14:37.409Z,9.0
2022-10-13T22:19:37.441Z,9.2
2022-10-13T22:24:37.411Z,9.2
2022-10-13T22:29:37.419Z,9.0
2022-10-13T22:34:37.420Z,9.0
2022-10-13T22:39:37.429Z,9.1
2022-10-13T22:44:37.421Z,9.2
2022-10-13T22:49:37.418Z,8.9
2022-10-13T22:54:37.431Z,9.2
2022-10-13T22:59:37.417Z,9.1
2022-10-13T23:04:37.430Z,8.9
2022-10-13T23:09:37.455Z,8.9
2022-10-13T23:14:37.427Z,9.0
2022-10-13T23:19:37.419Z,9.1
2022-10-13T23:24:37.428Z,9.2
2022-10-13T23:29:37.423Z,9.0
2022-10-13T23:34:37.485Z,9.1
2022-10-13T23:39:37.428Z,9.1
2022-10-13T23:44:37.431Z,9.2
2022-10-13T23:49:37.422Z,9.1
2022-10-13T23:54:37.437Z,9.0
2022-10-13T23:59:37.442Z,9.4
